Time;durP1;ratioP1;P1;durP2;ratioP2;P2;SDS_P1;SDS_P2;PMS_P1;PMS_P2;Temp;Humidity;BMP_temperature;BMP_pressure;BME280_temperature;BME280_humidity;BME280_pressure;Samples;Min_cycle;Max_cycle;Signal;HPM_P1;HPM_P2
2022/10/14 00:01:43;;;;;;;3.47;3.17;;;14.80;88.40;;;15.02;53.83;95274.81;5025215;28;21009;-56
2022/10/14 00:04:10;;;;;;;5.80;3.60;;;14.80;88.50;;;15.03;53.54;95276.50;5025357;28;20507;-53
2022/10/14 00:06:37;;;;;;;6.50;2.80;;;14.80;88.50;;;15.02;53.65;95274.81;5025134;28;20457;-55
2022/10/14 00:09:07;;;;;;;3.63;2.97;;;14.80;88.10;;;15.00;52.92;95282.09;5025306;28;20460;-55
2022/10/14 00:11:35;;;;;;;3.33;3.07;;;14.80;87.00;;;15.01;53.57;95267.03;5025212;28;20562;-57
2022/10/14 00:14:06;;;;;;;3.37;2.50;;;14.80;88.00;;;15.00;53.39;95271.50;5024769;28;20506;-56
2022/10/14 00:16:38;;;;;;;5.37;3.17;;;14.80;87.70;;;14.98;53.75;95262.88;5025958;28;20495;-55
2022/10/14 00:19:05;;;;;;;4.50;2.70;;;14.80;88.20;;;14.97;53.78;95260.41;5022753;28;20437;-55
2022/10/14 00:21:33;;;;;;;6.90;2.87;;;14.80;88.10;;;14.95;53.77;95263.22;5025097;28;20492;-55
2022/10/14 00:24:00;;;;;;;3.13;2.80;;;14.70;88.20;;;14.94;53.94;95253.59;5025337;28;20461;-55
2022/10/14 00:26:29;;;;;;;7.80;2.07;;;14.70;88.30;;;14.94;54.09;95258.88;5024987;28;20476;-57
2022/10/14 00:28:57;;;;;;;11.20;2.70;;;14.70;88.40;;;14.94;54.10;95258.06;5025018;28;20549;-54
2022/10/14 00:31:24;;;;;;;6.57;3.23;;;14.70;88.60;;;14.94;53.93;95261.53;5025453;28;20916;-56
2022/10/14 00:33:53;;;;;;;4.00;2.67;;;14.70;88.70;;;14.96;54.20;95258.72;5025163;28;20896;-54
2022/10/14 00:36:21;;;;;;;2.73;2.50;;;14.80;89.00;;;14.96;54.17;95258.72;5024934;28;20469;-57
2022/10/14 00:38:48;;;;;;;13.63;2.83;;;14.70;88.90;;;14.93;54.20;95259.88;5024812;28;20453;-57
2022/10/14 00:41:17;;;;;;;14.07;2.67;;;14.70;88.90;;;14.91;54.44;95250.44;5024714;28;21017;-56
2022/10/14 00:43:59;;;;;;;5.10;2.27;;;14.70;89.10;;;14.90;54.50;95246.94;5025051;28;20453;-56
2022/10/14 00:46:28;;;;;;;4.50;2.17;;;14.70;89.30;;;14.89;54.46;95247.94;5022225;28;21056;-56
2022/10/14 00:48:57;;;;;;;4.23;2.13;;;14.70;89.50;;;14.88;54.65;95251.56;5025402;28;20453;-53
2022/10/14 00:51:24;;;;;;;3.20;2.27;;;14.70;89.60;;;14.86;54.69;95264.97;5025024;28;20476;-57
2022/10/14 00:53:51;;;;;;;5.33;2.17;;;14.70;89.90;;;14.85;54.92;95258.00;5024787;28;20453;-56
2022/10/14 00:56:24;;;;;;;8.03;2.00;;;14.60;90.30;;;14.84;55.09;95239.63;5025074;28;20472;-55
2022/10/14 00:58:51;;;;;;;3.60;2.23;;;14.70;90.10;;;14.83;55.12;95240.63;5022502;28;20445;-56
2022/10/14 01:01:18;;;;;;;5.80;2.27;;;14.60;90.10;;;14.81;55.15;95231.97;5024878;28;20877;-56
2022/10/14 01:03:46;;;;;;;2.60;1.70;;;14.60;90.20;;;14.81;55.22;95231.97;5024719;28;20464;-60
2022/10/14 01:06:22;;;;;;;8.20;1.77;;;14.60;90.40;;;14.81;55.39;95232.84;5026278;28;20921;-55
2022/10/14 01:08:54;;;;;;;2.27;1.80;;;14.60;90.50;;;14.81;55.72;95235.47;5025171;28;20436;-55
2022/10/14 01:11:25;;;;;;;9.87;2.03;;;14.60;90.60;;;14.81;55.87;95239.94;5021351;28;20842;-55
2022/10/14 01:14:11;;;;;;;4.10;1.70;;;14.60;90.70;;;14.81;55.73;95237.28;5024532;28;20456;-56
2022/10/14 01:16:44;;;;;;;3.77;1.70;;;14.60;90.80;;;14.79;56.14;95234.78;5025851;28;20464;-56
2022/10/14 01:19:28;;;;;;;4.60;1.97;;;14.60;90.90;;;14.78;55.95;95224.34;5024559;28;20862;-55
2022/10/14 01:21:59;;;;;;;6.40;1.97;;;14.60;91.00;;;14.78;56.37;95219.06;5024079;28;20551;-55
2022/10/14 01:24:42;;;;;;;2.63;2.10;;;14.60;91.20;;;14.76;56.38;95213.91;5024459;28;20452;-56
2022/10/14 01:27:31;;;;;;;4.20;1.80;;;14.60;91.30;;;14.74;56.58;95215.09;5025846;28;20803;-55
2022/10/14 01:30:17;;;;;;;2.27;1.67;;;14.60;91.30;;;14.72;56.60;95198.50;5028087;28;20815;-55
2022/10/14 01:33:03;;;;;;;2.87;2.10;;;14.50;91.40;;;14.68;56.68;95201.47;5025490;28;20455;-58
2022/10/14 01:35:39;;;;;;;4.87;2.33;;;14.50;91.60;;;14.67;56.88;95202.47;5025305;28;20476;-55
2022/10/14 01:38:10;;;;;;;2.40;1.90;;;14.50;91.70;;;14.66;57.05;95214.03;5028137;28;20490;-57
2022/10/14 01:40:40;;;;;;;4.67;1.80;;;14.50;91.80;;;14.66;57.10;95207.94;5027849;28;20480;-56
2022/10/14 01:43:07;;;;;;;2.70;1.53;;;14.40;91.80;;;14.63;57.26;95211.72;5027569;28;20473;-55
2022/10/14 01:45:37;;;;;;;4.80;1.90;;;14.40;92.00;;;14.63;57.39;95205.59;5025288;28;20464;-57
2022/10/14 01:48:05;;;;;;;2.73;1.70;;;14.40;92.00;;;14.62;57.62;95209.22;5029194;28;20829;-56
2022/10/14 01:50:32;;;;;;;1.83;1.50;;;14.40;92.30;;;14.62;57.48;95211.88;5027660;28;21039;-55
2022/10/14 01:53:02;;;;;;;3.37;1.57;;;14.40;92.30;;;14.58;57.82;95199.88;5027984;28;20449;-55
2022/10/14 01:55:33;;;;;;;1.77;1.67;;;14.40;92.40;;;14.60;57.53;95206.72;5028102;28;20469;-54
2022/10/14 01:58:00;;;;;;;2.10;1.53;;;14.40;92.40;;;14.62;57.97;95212.69;5027519;28;20543;-54
2022/10/14 02:00:27;;;;;;;2.73;1.30;;;14.40;92.60;;;14.63;58.14;95210.88;5027385;28;20973;-52
2022/10/14 02:02:56;;;;;;;11.10;1.97;;;14.40;92.80;;;14.58;58.06;95205.19;5027335;28;20499;-54
2022/10/14 02:05:32;;;;;;;3.00;2.43;;;14.40;92.80;;;14.61;58.33;95213.69;5027166;28;20473;-55
2022/10/14 02:08:04;;;;;;;2.40;1.43;;;14.40;92.90;;;14.60;58.21;95212.00;5027440;28;20448;-55
2022/10/14 02:10:46;;;;;;;1.83;1.73;;;14.40;93.10;;;14.60;58.84;95206.72;5027059;28;21496;-56
2022/10/14 02:13:23;;;;;;;3.73;1.73;;;14.40;93.20;;;14.56;58.66;95200.03;5027254;28;20571;-55
2022/10/14 02:15:57;;;;;;;1.83;1.20;;;14.40;93.30;;;14.53;58.78;95197.69;5027432;28;20495;-54
2022/10/14 02:18:30;;;;;;;1.70;1.40;;;14.40;93.40;;;14.49;58.83;95199.03;5026125;28;20449;-55
2022/10/14 02:21:00;;;;;;;5.23;1.30;;;14.30;93.50;;;14.42;58.96;95200.63;5027321;28;20472;-55
2022/10/14 02:23:30;;;;;;;9.40;1.90;;;14.30;93.60;;;14.39;59.25;95200.94;5027268;28;20480;-57
2022/10/14 02:25:57;;;;;;;6.90;1.27;;;14.20;93.80;;;14.33;59.42;95192.63;5026916;28;20480;-54
2022/10/14 02:28:27;;;;;;;1.47;1.17;;;14.20;93.80;;;14.29;59.48;95188.63;5027552;28;20461;-56
2022/10/14 02:30:57;;;;;;;4.40;1.10;;;14.10;93.80;;;14.26;59.34;95188.94;5023375;28;20469;-54
2022/10/14 02:33:28;;;;;;;2.07;1.07;;;14.10;94.10;;;14.23;59.93;95186.59;5027342;28;20452;-57
2022/10/14 02:35:55;;;;;;;2.80;1.20;;;14.10;94.30;;;14.21;59.83;95185.94;5026911;28;20542;-55
2022/10/14 02:38:22;;;;;;;1.90;1.80;;;14.00;94.20;;;14.20;59.84;95184.25;5027221;28;20452;-55
2022/10/14 02:40:50;;;;;;;2.60;0.97;;;14.00;94.40;;;14.19;59.80;95189.72;5027052;28;20503;-56
2022/10/14 02:43:18;;;;;;;1.50;1.33;;;14.00;94.40;;;14.17;60.03;95189.88;5026876;28;20492;-54
2022/10/14 02:45:45;;;;;;;2.83;1.40;;;14.00;94.60;;;14.17;60.20;95187.22;5027115;28;20476;-55
2022/10/14 02:48:13;;;;;;;4.97;1.50;;;14.00;94.60;;;14.17;60.46;95195.16;5027312;28;20453;-57
2022/10/14 02:50:42;;;;;;;2.73;1.30;;;14.00;95.20;;;14.15;60.40;95183.91;5026507;28;20587;-54
2022/10/14 02:53:09;;;;;;;3.17;1.07;;;14.00;94.70;;;14.15;60.33;95181.25;5023704;28;20463;-54
2022/10/14 02:55:37;;;;;;;1.30;1.20;;;14.00;95.00;;;14.14;60.37;95183.09;5026367;28;20480;-55
2022/10/14 02:58:04;;;;;;;2.30;1.27;;;14.00;95.00;;;14.13;60.59;95188.53;5026744;28;20460;-55
2022/10/14 03:00:31;;;;;;;1.60;1.50;;;13.90;94.90;;;14.10;60.41;95186.19;5025122;28;20503;-54
2022/10/14 03:02:59;;;;;;;1.50;1.30;;;13.90;95.00;;;14.08;60.57;95182.84;5026693;28;20510;-56
2022/10/14 03:05:26;;;;;;;6.10;2.00;;;13.90;95.10;;;14.07;61.08;95189.13;5026921;28;20476;-55
2022/10/14 03:07:55;;;;;;;2.57;2.17;;;13.90;95.20;;;14.06;60.92;95185.66;5026440;28;20453;-53
2022/10/14 03:10:22;;;;;;;6.30;2.40;;;13.90;95.30;;;14.05;60.83;95180.50;5026274;28;20473;-56
2022/10/14 03:12:49;;;;;;;2.77;1.93;;;13.90;95.50;;;14.05;60.91;95180.50;5026403;28;20572;-56
2022/10/14 03:15:17;;;;;;;6.77;1.37;;;13.90;95.50;;;14.04;60.93;95178.88;5026882;28;20476;-57
2022/10/14 03:17:44;;;;;;;2.30;1.47;;;13.90;95.50;;;14.02;61.11;95167.59;5026534;28;20457;-55
2022/10/14 03:20:12;;;;;;;1.60;1.50;;;13.80;95.50;;;13.98;61.03;95172.38;5025964;28;20472;-55
2022/10/14 03:22:39;;;;;;;2.57;1.50;;;13.80;95.50;;;13.97;61.15;95171.53;5026451;28;20496;-56
2022/10/14 03:25:10;;;;;;;7.40;1.50;;;13.80;95.60;;;13.97;61.52;95174.19;5023226;28;20476;-54
2022/10/14 03:27:37;;;;;;;2.90;1.10;;;13.80;95.80;;;13.97;61.40;95174.19;5025686;28;20506;-54
2022/10/14 03:30:06;;;;;;;2.77;1.07;;;13.80;95.80;;;13.98;61.20;95175.84;5025698;28;20472;-54
2022/10/14 03:32:33;;;;;;;1.50;1.40;;;13.80;95.70;;;13.98;61.08;95177.66;5026087;28;20841;-54
2022/10/14 03:35:01;;;;;;;1.97;1.60;;;13.80;95.70;;;13.96;61.49;95177.81;5026252;28;20562;-55
2022/10/14 03:37:28;;;;;;;1.80;1.50;;;13.80;95.80;;;13.95;61.26;95176.13;5025428;28;20870;-54
2022/10/14 03:39:55;;;;;;;5.50;1.40;;;13.80;95.70;;;13.92;61.16;95178.25;5025472;28;20477;-57
2022/10/14 03:42:24;;;;;;;3.97;1.60;;;13.80;95.80;;;13.90;61.14;95175.78;5025143;28;20484;-56
2022/10/14 03:44:52;;;;;;;2.10;1.43;;;13.70;95.80;;;13.90;61.33;95181.06;5025577;28;20472;-55
2022/10/14 03:47:19;;;;;;;2.80;1.87;;;13.70;95.80;;;13.91;61.14;95184.53;5024671;28;20459;-55
2022/10/14 03:49:47;;;;;;;5.57;3.30;;;13.70;95.80;;;13.89;61.14;95174.09;5024813;28;20804;-55
2022/10/14 03:52:14;;;;;;;8.83;4.30;;;13.70;95.80;;;13.88;61.43;95176.91;5025291;28;20457;-55
2022/10/14 03:54:41;;;;;;;10.23;4.20;;;13.70;95.90;;;13.86;61.09;95177.06;5025606;28;21083;-55
2022/10/14 03:57:08;;;;;;;2.90;1.83;;;13.70;95.90;;;13.86;61.07;95174.41;5025398;28;20453;-58
2022/10/14 03:59:37;;;;;;;2.50;2.30;;;13.70;95.90;;;13.86;61.41;95174.41;5025059;28;20564;-53
2022/10/14 04:02:05;;;;;;;3.87;1.40;;;13.70;96.10;;;13.85;61.49;95167.47;5022870;28;20496;-55
2022/10/14 04:04:32;;;;;;;5.33;1.90;;;13.70;96.00;;;13.85;61.61;95170.13;5025951;28;20469;-55
2022/10/14 04:06:59;;;;;;;2.90;1.33;;;13.70;96.00;;;13.83;61.43;95166.78;5025668;28;20466;-55
2022/10/14 04:09:28;;;;;;;1.20;1.10;;;13.70;96.00;;;13.82;61.60;95167.78;5025728;28;20484;-56
2022/10/14 04:11:56;;;;;;;2.60;1.17;;;13.60;96.00;;;13.81;61.32;95160.81;5025636;28;20575;-52
2022/10/14 04:14:24;;;;;;;1.67;1.20;;;13.60;96.20;;;13.82;61.75;95159.84;5026010;28;20539;-57
2022/10/14 04:16:52;;;;;;;1.80;1.50;;;13.60;96.20;;;13.83;61.86;95158.84;5024454;28;20455;-56
2022/10/14 04:19:20;;;;;;;9.50;1.83;;;13.60;96.20;;;13.82;61.57;95159.84;5025645;28;20988;-56
2022/10/14 04:21:47;;;;;;;4.07;1.43;;;13.60;96.20;;;13.81;61.64;95155.53;5025212;28;20461;-54
2022/10/14 04:24:15;;;;;;;2.80;2.03;;;13.60;96.20;;;13.81;61.67;95160.81;5021798;28;20795;-54
2022/10/14 04:26:43;;;;;;;7.13;2.60;;;13.60;96.20;;;13.81;61.70;95163.47;5022541;28;20480;-56
2022/10/14 04:29:10;;;;;;;2.40;1.57;;;13.70;96.30;;;13.79;61.39;95158.34;5025236;28;20468;-53
2022/10/14 04:31:38;;;;;;;5.60;2.10;;;13.60;96.20;;;13.78;61.60;95164.59;5024233;28;20455;-56
2022/10/14 04:34:06;;;;;;;4.77;2.00;;;13.60;96.20;;;13.77;61.68;95156.81;5024263;28;20499;-56
2022/10/14 04:36:34;;;;;;;5.50;2.00;;;13.60;96.20;;;13.75;61.67;95159.63;5025107;28;20449;-55
2022/10/14 04:39:01;;;;;;;4.00;2.20;;;13.60;96.20;;;13.74;61.75;95151.84;5025085;28;20460;-55
2022/10/14 04:41:28;;;;;;;4.33;1.50;;;13.60;96.20;;;13.73;61.74;95151.00;5025453;28;20468;-58
2022/10/14 04:43:56;;;;;;;28.87;14.30;;;13.60;96.20;;;13.72;62.02;95151.16;5024978;28;20550;-55
2022/10/14 04:46:23;;;;;;;5.40;3.73;;;13.50;96.40;;;13.72;61.60;95146.69;5025021;28;20464;-56
2022/10/14 04:48:51;;;;;;;11.70;1.90;;;13.60;96.30;;;13.72;61.93;95145.88;5024961;28;20460;-55
2022/10/14 04:51:19;;;;;;;2.63;1.70;;;13.60;96.50;;;13.74;61.53;95149.19;5024817;28;20465;-57
2022/10/14 04:53:46;;;;;;;3.50;2.23;;;13.50;96.30;;;13.74;61.71;95146.53;5024425;28;20464;-54
2022/10/14 04:56:14;;;;;;;9.07;2.13;;;13.60;96.50;;;13.75;61.98;95146.38;5024778;28;20469;-56
2022/10/14 04:58:41;;;;;;;19.20;2.40;;;13.50;96.40;;;13.75;61.70;95149.03;5024294;28;20460;-55
2022/10/14 05:01:08;;;;;;;3.37;1.97;;;13.60;96.40;;;13.76;61.85;95149.88;5027354;28;20480;-55
2022/10/14 05:03:35;;;;;;;5.47;2.70;;;13.60;96.20;;;13.75;61.52;95148.22;5028943;28;21051;-56
2022/10/14 05:06:06;;;;;;;5.83;1.70;;;13.60;96.20;;;13.74;61.40;95136.81;5028975;28;20480;-55
2022/10/14 05:08:35;;;;;;;14.87;1.40;;;13.60;96.20;;;13.75;61.55;95145.56;5029131;28;20536;-54
2022/10/14 05:11:02;;;;;;;11.00;1.53;;;13.60;96.20;;;13.75;61.14;95141.09;5028591;28;20472;-56
2022/10/14 05:13:31;;;;;;;2.70;1.80;;;13.60;96.20;;;13.75;60.98;95138.47;5028660;28;20452;-55
2022/10/14 05:15:59;;;;;;;1.83;1.60;;;13.60;96.10;;;13.76;60.98;95136.66;5028425;28;20531;-53
2022/10/14 05:18:29;;;;;;;2.80;1.97;;;13.60;96.00;;;13.77;60.86;95141.81;5028772;28;20452;-58
2022/10/14 05:20:58;;;;;;;5.23;2.60;;;13.60;96.00;;;13.79;61.14;95136.38;5029069;28;20473;-54
2022/10/14 05:23:26;;;;;;;3.97;2.70;;;13.60;95.90;;;13.81;60.92;95134.38;5028032;28;20734;-55
2022/10/14 05:25:54;;;;;;;5.27;2.13;;;13.60;95.80;;;13.83;60.86;95139.53;5028381;28;20464;-54
2022/10/14 05:28:22;;;;;;;4.57;2.00;;;13.60;95.60;;;13.82;60.44;95136.06;5029399;28;20457;-55
2022/10/14 05:30:49;;;;;;;5.23;2.17;;;13.70;95.60;;;13.83;60.65;95135.06;5029152;28;20927;-54
2022/10/14 05:33:16;;;;;;;4.40;1.67;;;13.70;95.60;;;13.84;60.28;95138.56;5028382;28;20453;-56
2022/10/14 05:35:43;;;;;;;8.30;2.67;;;13.70;95.50;;;13.86;60.51;95140.03;5028529;28;20588;-55
2022/10/14 05:38:11;;;;;;;3.37;2.00;;;13.70;95.50;;;13.89;60.55;95145.00;5027898;28;20491;-55
2022/10/14 05:40:38;;;;;;;6.57;2.27;;;13.70;95.40;;;13.90;60.25;95149.34;5028094;28;20555;-56
2022/10/14 05:43:07;;;;;;;7.90;2.50;;;13.70;95.30;;;13.94;60.02;95150.69;5024193;28;20615;-54
2022/10/14 05:45:34;;;;;;;4.97;2.20;;;13.80;95.40;;;13.96;60.16;95151.38;5027469;28;20483;-56
2022/10/14 05:48:02;;;;;;;6.27;2.67;;;13.80;95.40;;;14.01;60.54;95158.84;5027591;28;20468;-55
2022/10/14 05:50:29;;;;;;;3.10;2.60;;;13.80;95.60;;;14.05;60.48;95157.56;5025655;28;20465;-55
2022/10/14 05:52:56;;;;;;;6.77;2.57;;;13.90;95.70;;;14.11;60.40;95158.72;5027223;28;20464;-58
2022/10/14 05:55:24;;;;;;;15.03;3.40;;;13.90;95.60;;;14.16;60.53;95162.59;5023839;28;20483;-57
2022/10/14 05:57:55;;;;;;;4.03;3.30;;;13.90;95.60;;;14.23;60.35;95160.13;5026807;28;20457;-54
2022/10/14 06:00:25;;;;;;;15.93;3.57;;;14.00;95.70;;;14.30;60.27;95155.91;5027476;28;20504;-55
2022/10/14 06:02:53;;;;;;;6.23;3.60;;;14.10;95.60;;;14.36;60.13;95172.97;5027699;28;20804;-56
2022/10/14 06:05:21;;;;;;;7.30;3.93;;;14.10;95.50;;;14.41;60.19;95162.75;5027735;28;20560;-55
2022/10/14 06:07:49;;;;;;;12.70;4.63;;;14.20;95.70;;;14.49;60.78;95168.09;5027029;28;20457;-55
2022/10/14 06:10:18;;;;;;;3.73;2.00;;;14.30;96.10;;;14.55;60.27;95166.63;5026686;28;20910;-57
2022/10/14 06:12:46;;;;;;;2.93;1.90;;;14.30;95.60;;;14.58;60.23;95168.97;5026567;28;20540;-56
2022/10/14 06:15:15;;;;;;;1.93;1.83;;;14.40;95.50;;;14.59;59.82;95170.59;5026880;28;20806;-56
2022/10/14 06:17:45;;;;;;;2.80;2.60;;;14.40;95.40;;;14.58;60.00;95176.91;5027373;28;20467;-56
2022/10/14 06:20:14;;;;;;;3.80;2.30;;;14.40;95.40;;;14.55;60.23;95179.88;5026481;28;20472;-57
2022/10/14 06:22:43;;;;;;;5.43;2.30;;;14.40;95.40;;;14.56;60.24;95178.88;5025596;28;21121;-56
2022/10/14 06:25:11;;;;;;;6.23;2.40;;;14.40;95.40;;;14.56;59.96;95178.88;5026301;28;20936;-54
2022/10/14 06:27:40;;;;;;;4.87;2.50;;;14.40;95.40;;;14.56;59.95;95178.88;5026115;28;20540;-54
2022/10/14 06:30:11;;;;;;;4.00;2.10;;;14.40;95.30;;;14.52;60.12;95188.94;5023914;28;20567;-55
2022/10/14 06:32:40;;;;;;;2.33;2.13;;;14.40;95.20;;;14.48;60.01;95181.47;5026462;28;20536;-55
2022/10/14 06:35:11;;;;;;;4.57;2.43;;;14.30;95.30;;;14.44;60.11;95180.97;5026734;28;20960;-56
2022/10/14 06:37:39;;;;;;;3.83;1.87;;;14.30;95.20;;;14.40;59.93;95187.53;5026837;28;20437;-56
2022/10/14 06:40:09;;;;;;;3.53;2.47;;;14.30;95.10;;;14.37;59.74;95189.69;5026513;28;21120;-57
2022/10/14 06:42:38;;;;;;;3.77;2.43;;;14.20;95.00;;;14.33;59.68;95187.34;5023199;28;20526;-54
2022/10/14 06:45:08;;;;;;;3.10;1.80;;;14.20;94.80;;;14.27;59.37;95193.25;5026593;28;20810;-55
2022/10/14 06:47:36;;;;;;;3.73;2.50;;;14.10;94.70;;;14.22;59.44;95198.19;5025996;28;20457;-55
2022/10/14 06:50:05;;;;;;;4.20;2.00;;;14.10;94.70;;;14.22;59.47;95195.53;5026570;28;20465;-56
2022/10/14 06:52:34;;;;;;;3.37;1.90;;;14.10;94.70;;;14.26;59.54;95185.47;5026186;28;20459;-56
2022/10/14 06:55:03;;;;;;;8.77;2.63;;;14.10;94.70;;;14.29;59.20;95185.16;5026486;28;20480;-55
2022/10/14 06:57:31;;;;;;;3.03;2.83;;;14.10;94.70;;;14.32;59.39;95187.50;5025175;28;21207;-56
2022/10/14 06:59:59;;;;;;;7.77;2.60;;;14.20;94.70;;;14.38;59.45;95184.22;5025739;28;20583;-55
2022/10/14 07:02:29;;;;;;;2.73;2.53;;;14.20;94.70;;;14.45;59.33;95185.28;5026183;28;20567;-54
2022/10/14 07:05:04;;;;;;;5.60;3.17;;;14.30;94.70;;;14.55;59.03;95184.31;5026138;28;20947;-54
2022/10/14 07:07:35;;;;;;;8.10;2.63;;;14.30;94.70;;;14.64;59.02;95186.91;5025978;28;20444;-57
2022/10/14 07:10:04;;;;;;;3.70;3.40;;;14.40;94.60;;;14.73;58.61;95187.75;5025870;28;20477;-55
2022/10/14 07:12:32;;;;;;;3.83;2.70;;;14.50;94.50;;;14.82;58.87;95183.34;5025566;28;20958;-55
2022/10/14 07:15:03;;;;;;;2.27;2.07;;;14.60;94.50;;;14.90;58.39;95186.03;5025603;28;20563;-54
2022/10/14 07:17:32;;;;;;;3.77;3.47;;;14.70;94.10;;;14.93;58.03;95177.75;5025617;28;20441;-56
2022/10/14 07:20:01;;;;;;;10.33;3.60;;;14.70;94.10;;;14.98;58.30;95183.44;5025755;28;20481;-55
2022/10/14 07:22:31;;;;;;;7.07;3.37;;;14.80;94.10;;;15.03;57.88;95180.31;5024604;28;20988;-56
2022/10/14 07:25:01;;;;;;;3.60;2.67;;;14.80;93.80;;;15.04;57.86;95176.63;5024320;28;20503;-55
2022/10/14 07:27:30;;;;;;;3.00;2.87;;;14.90;93.90;;;15.10;57.95;95188.44;5022196;28;20449;-56
2022/10/14 07:30:00;;;;;;;2.80;2.47;;;14.90;93.60;;;15.10;56.96;95180.47;5027207;28;20496;-57
2022/10/14 07:32:29;;;;;;;12.60;3.07;;;14.90;93.00;;;15.06;57.47;95178.16;5026161;28;20448;-57
2022/10/14 07:34:59;;;;;;;3.30;3.10;;;14.90;93.30;;;15.09;56.96;95179.66;5026725;28;20825;-57
2022/10/14 07:37:28;;;;;;;4.13;2.90;;;14.90;93.00;;;15.11;57.10;95168.91;5025199;28;20468;-56
2022/10/14 07:39:57;;;;;;;5.30;3.13;;;14.90;93.10;;;15.12;57.10;95170.53;5025672;28;20472;-55
2022/10/14 07:42:27;;;;;;;15.90;3.60;;;15.00;93.00;;;15.17;57.28;95163.78;5024375;28;20480;-60
2022/10/14 07:44:57;;;;;;;2.87;2.60;;;15.00;93.20;;;15.31;57.11;95159.69;5027122;28;20492;-56
2022/10/14 07:47:26;;;;;;;4.70;3.17;;;15.10;93.20;;;15.47;56.82;95166.00;5025345;28;20515;-56
2022/10/14 07:49:55;;;;;;;8.93;3.33;;;15.20;92.90;;;15.59;56.26;95162.06;5025279;28;20465;-56
2022/10/14 07:52:24;;;;;;;6.17;4.00;;;15.30;92.50;;;15.67;56.27;95169.19;5025068;28;20530;-57
2022/10/14 07:54:54;;;;;;;3.97;3.57;;;15.40;92.50;;;15.73;55.49;95174.66;5025044;28;20953;-57
2022/10/14 07:57:26;;;;;;;3.87;3.30;;;15.50;91.90;;;15.75;55.72;95175.34;5024780;28;20457;-56
2022/10/14 07:59:55;;;;;;;6.37;4.00;;;15.60;91.80;;;15.76;55.85;95169.03;5021614;28;20559;-56
2022/10/14 08:02:25;;;;;;;15.03;3.57;;;15.60;91.90;;;15.77;55.78;95160.13;5026464;28;20464;-56
2022/10/14 08:04:55;;;;;;;6.40;3.63;;;15.60;92.10;;;15.79;54.93;95175.88;5025007;28;20502;-55
2022/10/14 08:07:25;;;;;;;3.93;3.63;;;15.60;91.30;;;15.74;55.07;95172.88;5025404;28;20460;-54
2022/10/14 08:09:57;;;;;;;4.27;3.87;;;15.60;91.30;;;15.69;55.11;95170.69;5024868;28;20924;-57
2022/10/14 08:12:30;;;;;;;6.50;4.00;;;15.60;91.30;;;15.64;54.71;95173.00;5024271;28;20447;-55
2022/10/14 08:15:00;;;;;;;3.53;3.20;;;15.50;90.90;;;15.61;55.00;95165.38;5024909;28;20468;-55
2022/10/14 08:17:29;;;;;;;5.97;3.37;;;15.50;91.00;;;15.60;54.83;95172.50;5024630;28;20462;-53
2022/10/14 08:19:59;;;;;;;10.53;4.47;;;15.40;90.70;;;15.65;54.98;95174.66;5024665;28;20475;-57
2022/10/14 08:22:31;;;;;;;4.67;4.00;;;15.50;91.10;;;15.70;54.70;95168.88;5026952;28;20934;-58
2022/10/14 08:25:01;;;;;;;4.93;3.20;;;15.50;91.30;;;15.71;53.33;95181.97;5025084;28;20590;-55
2022/10/14 08:27:32;;;;;;;3.80;3.50;;;15.50;90.00;;;15.64;53.08;95167.69;5024471;28;20485;-55
2022/10/14 08:30:01;;;;;;;3.00;2.73;;;15.50;89.00;;;15.57;53.37;95175.47;5022322;28;20520;-54
2022/10/14 08:32:33;;;;;;;4.47;3.10;;;15.50;89.30;;;15.55;53.51;95164.22;5024703;28;20464;-55
2022/10/14 08:35:06;;;;;;;4.87;3.97;;;15.40;89.50;;;15.57;54.05;95172.81;5021318;28;20560;-57
2022/10/14 08:37:35;;;;;;;2.83;2.60;;;15.40;89.60;;;15.62;53.35;95179.47;5024756;28;20453;-57
2022/10/14 08:40:05;;;;;;;3.00;2.80;;;15.40;88.70;;;15.62;53.44;95176.81;5021021;28;20483;-55
2022/10/14 08:42:43;;;;;;;10.30;2.60;;;15.50;88.90;;;15.61;53.55;95173.31;5024751;28;20449;-55
2022/10/14 08:45:15;;;;;;;3.00;2.67;;;15.50;89.00;;;15.67;53.48;95175.31;5024249;28;20491;-56
2022/10/14 08:47:47;;;;;;;7.93;3.10;;;15.50;89.20;;;15.72;53.52;95180.97;5025091;28;21013;-56
2022/10/14 08:50:28;;;;;;;2.67;2.50;;;15.50;89.10;;;15.87;53.25;95177.69;5021187;28;20530;-56
2022/10/14 08:53:00;;;;;;;2.87;2.67;;;15.60;89.30;;;15.98;53.31;95179.19;5024430;28;20447;-57
2022/10/14 08:55:34;;;;;;;5.13;2.50;;;15.70;88.30;;;16.04;53.12;95173.22;5023658;28;20465;-56
2022/10/14 08:58:13;;;;;;;3.30;2.97;;;15.80;88.40;;;16.11;52.10;95175.06;5024539;28;21061;-56
2022/10/14 09:00:43;;;;;;;6.10;2.67;;;15.90;88.00;;;16.18;53.08;95174.38;5023842;28;20519;-56
2022/10/14 09:03:21;;;;;;;2.63;2.27;;;16.00;88.20;;;16.27;52.88;95174.22;5024778;28;20518;-58
2022/10/14 09:05:55;;;;;;;4.37;3.00;;;16.10;88.00;;;16.43;52.18;95170.69;5022975;28;20488;-57
2022/10/14 09:08:29;;;;;;;2.30;2.10;;;16.20;87.20;;;16.54;51.90;95160.72;5022286;28;20507;-56
2022/10/14 09:11:03;;;;;;;4.10;3.20;;;16.30;86.40;;;16.63;51.67;95163.19;5023775;28;20475;-57
2022/10/14 09:13:38;;;;;;;3.87;1.93;;;16.40;86.40;;;16.79;51.08;95159.66;5025499;28;20437;-56
2022/10/14 09:16:10;;;;;;;2.57;2.20;;;16.50;85.20;;;16.96;51.12;95162.28;5024784;28;20622;-56
2022/10/14 09:18:44;;;;;;;4.50;2.73;;;16.70;85.20;;;17.03;50.39;95158.75;5022370;28;20942;-56
2022/10/14 09:21:34;;;;;;;2.90;2.67;;;16.80;82.80;;;17.13;49.49;95163.88;5024602;28;20468;-56
2022/10/14 09:24:10;;;;;;;2.10;2.00;;;16.90;82.10;;;17.25;49.31;95155.53;5020501;28;20576;-56
2022/10/14 09:26:41;;;;;;;2.67;2.43;;;17.00;81.60;;;17.38;50.12;95150.44;5024299;28;20515;-56
2022/10/14 09:29:23;;;;;;;7.43;2.10;;;17.10;82.00;;;17.51;48.88;95150.72;5021273;28;20917;-56
2022/10/14 09:31:52;;;;;;;14.47;2.47;;;17.20;79.60;;;17.59;48.22;95151.69;5020572;28;20444;-56
2022/10/14 09:34:26;;;;;;;3.90;1.80;;;17.30;78.80;;;17.68;48.13;95159.41;5024718;28;20549;-55
2022/10/14 09:36:59;;;;;;;4.03;2.83;;;17.40;78.40;;;17.71;48.45;95150.25;5024488;28;20514;-56
2022/10/14 09:39:29;;;;;;;3.23;2.17;;;17.50;78.30;;;17.78;47.63;95166.34;5024909;28;20866;-57
2022/10/14 09:41:59;;;;;;;5.77;2.80;;;17.60;77.10;;;17.83;47.43;95154.16;5024484;28;20838;-57
2022/10/14 09:44:35;;;;;;;2.77;2.67;;;17.60;77.20;;;17.91;48.31;95145.31;5024043;28;20488;-57
2022/10/14 09:47:05;;;;;;;2.13;2.03;;;17.70;77.40;;;18.01;47.24;95156.53;5026909;28;20538;-55
2022/10/14 09:49:38;;;;;;;5.27;3.13;;;17.80;76.30;;;18.09;46.68;95156.50;5025446;28;20512;-57
2022/10/14 09:52:21;;;;;;;3.40;2.83;;;17.80;74.80;;;18.17;46.93;95152.09;5028092;28;20597;-57
2022/10/14 09:54:55;;;;;;;3.77;2.70;;;17.90;76.00;;;18.34;47.20;95155.44;5026677;28;20473;-54
2022/10/14 09:57:24;;;;;;;2.40;2.30;;;18.10;76.00;;;18.50;47.42;95152.63;5026091;28;20452;-56
2022/10/14 09:59:59;;;;;;;2.57;2.43;;;18.20;75.70;;;18.63;46.73;95155.47;5028355;28;20495;-56
2022/10/14 10:02:41;;;;;;;3.63;2.80;;;18.30;74.70;;;18.75;46.20;95157.69;5026704;28;20826;-56
2022/10/14 10:05:24;;;;;;;3.00;2.80;;;18.50;73.70;;;18.89;46.46;95146.22;5027755;28;20928;-54
2022/10/14 10:08:15;;;;;;;4.00;3.20;;;18.60;74.10;;;19.09;45.99;95145.66;5028152;28;21056;-55
2022/10/14 10:10:57;;;;;;;11.70;3.37;;;18.80;73.40;;;19.13;45.02;95139.78;5023945;28;20492;-55
2022/10/14 10:13:39;;;;;;;8.47;2.80;;;18.80;72.10;;;19.13;45.78;95141.59;5027353;28;20623;-58
2022/10/14 10:16:23;;;;;;;11.57;4.00;;;18.90;72.20;;;19.04;45.22;95146.22;5027748;28;20811;-57
2022/10/14 10:18:54;;;;;;;6.97;3.87;;;18.80;70.90;;;19.03;45.89;95149.88;5025984;28;20437;-53
2022/10/14 10:21:28;;;;;;;7.50;2.93;;;18.80;71.50;;;19.13;45.54;95145.09;5027385;28;20472;-55
2022/10/14 10:24:01;;;;;;;3.50;3.30;;;18.90;71.30;;;19.22;45.03;95145.00;5027361;28;20456;-56
2022/10/14 10:26:33;;;;;;;8.20;4.20;;;18.90;70.90;;;19.27;45.46;95135.44;5025541;28;20468;-56
2022/10/14 10:29:02;;;;;;;15.93;3.90;;;19.00;71.40;;;19.30;45.44;95135.06;5027571;28;20441;-55
2022/10/14 10:32:08;;;;;;;4.50;4.10;;;19.00;71.10;;;19.28;45.39;95145.06;5027866;28;20884;-55